Time;durP1;ratioP1;P1;durP2;ratioP2;P2;SDS_P1;SDS_P2;PMS_P1;PMS_P2;Temp;Humidity;BMP_temperature;BMP_pressure;BME280_temperature;BME280_humidity;BME280_pressure;Samples;Min_cycle;Max_cycle;Signal;HPM_P1;HPM_P2
2021/12/17 00:05:06;;;;;;;;;;;6.10;99.90;;;;;;5048752;28;19928;-86
2021/12/17 00:07:35;;;;;;;;;;;6.30;99.90;;;;;;5048982;28;19971;-88
2021/12/17 00:10:03;;;;;;;;;;;6.10;99.90;;;;;;5045783;28;19933;-87
2021/12/17 00:12:32;;;;;;;;;;;6.20;99.90;;;;;;5043918;28;19932;-88
2021/12/17 00:15:01;;;;;;;;;;;5.30;99.90;;;;;;5048390;28;19925;-87
2021/12/17 00:17:33;;;;;;;;;;;6.10;99.90;;;;;;5046468;28;19925;-87
2021/12/17 00:20:26;;;;;;;;;;;6.20;99.90;;;;;;5045353;28;19932;-87
2021/12/17 00:51:12;;;;;;;;;;;5.90;99.90;;;;;;5038891;28;20399;-87
2021/12/17 00:53:39;;;;;;;;;;;5.20;99.90;;;;;;5051102;28;19984;-86
2021/12/17 00:56:05;;;;;;;;;;;6.10;99.90;;;;;;5053014;28;19925;-88
2021/12/17 00:58:32;;;;;;;;;;;6.10;99.90;;;;;;5051879;28;19925;-88
2021/12/17 01:00:59;;;;;;;;;;;5.80;99.90;;;;;;5048314;28;19951;-88
2021/12/17 01:03:26;;;;;;;;;;;6.10;99.90;;;;;;5044369;28;19925;-88
2021/12/17 01:05:53;;;;;;;;;;;6.10;99.90;;;;;;5042831;28;19925;-87
2021/12/17 01:08:19;;;;;;;;;;;6.10;99.90;;;;;;5047389;28;20307;-87
2021/12/17 01:10:48;;;;;;;;;;;5.70;99.90;;;;;;5045424;28;19971;-87
2021/12/17 01:13:14;;;;;;;;;;;6.10;99.90;;;;;;5041889;28;19989;-86
2021/12/17 01:15:42;;;;;;;;;;;5.80;99.90;;;;;;5041992;28;19925;-87
2021/12/17 01:18:15;;;;;;;;;;;6.30;99.90;;;;;;5042745;28;19952;-87
2021/12/17 01:21:06;;;;;;;;;;;6.00;99.90;;;;;;5041723;28;19925;-88
2021/12/17 01:38:05;;;;;;;;;;;6.00;99.90;;;;;;5049834;28;19979;-85
2021/12/17 01:40:56;;;;;;;;;;;6.20;99.90;;;;;;5057564;28;19909;-86
2021/12/17 01:43:23;;;;;;;;;;;5.90;99.90;;;;;;5049756;28;19952;-85
2021/12/17 01:45:49;;;;;;;;;;;6.00;99.90;;;;;;5040400;28;19925;-85
2021/12/17 01:48:20;;;;;;;;;;;5.90;99.90;;;;;;5039577;28;19925;-86
2021/12/17 01:56:31;;;;;;;;;;;6.00;99.90;;;;;;5041884;28;19928;-85
2021/12/17 02:01:43;;;;;;;;;;;6.30;99.90;;;;;;5040872;28;19928;-86
2021/12/17 02:04:10;;;;;;;;;;;6.20;99.90;;;;;;5041928;28;19940;-87
2021/12/17 02:06:39;;;;;;;;;;;5.90;99.90;;;;;;5045126;28;19925;-86
2021/12/17 02:09:13;;;;;;;;;;;6.20;99.90;;;;;;5052117;28;19925;-87
2021/12/17 02:12:15;;;;;;;;;;;6.40;99.90;;;;;;5055850;28;19932;-86
2021/12/17 02:20:23;;;;;;;;;;;6.20;99.90;;;;;;5041334;28;19967;-87
2021/12/17 02:23:20;;;;;;;;;;;6.20;99.90;;;;;;5045261;28;19929;-87
2021/12/17 02:28:46;;;;;;;;;;;6.20;99.90;;;;;;5042254;28;19928;-86
2021/12/17 02:31:25;;;;;;;;;;;6.00;99.90;;;;;;5054136;28;19955;-85
2021/12/17 02:33:52;;;;;;;;;;;5.90;99.90;;;;;;5058564;28;19909;-85
2021/12/17 02:36:22;;;;;;;;;;;6.00;99.90;;;;;;5057954;28;19993;-87
2021/12/17 02:38:51;;;;;;;;;;;6.30;99.90;;;;;;5058576;28;19909;-87
2021/12/17 02:46:49;;;;;;;;;;;6.00;99.90;;;;;;5040163;28;19963;-87
2021/12/17 02:49:16;;;;;;;;;;;5.90;99.90;;;;;;5040073;28;19925;-86
2021/12/17 02:51:42;;;;;;;;;;;5.20;99.90;;;;;;5054411;28;19929;-85
2021/12/17 02:54:11;;;;;;;;;;;5.80;99.90;;;;;;5060386;28;19936;-86
2021/12/17 02:56:37;;;;;;;;;;;6.00;99.90;;;;;;5061429;28;19924;-86
2021/12/17 02:59:04;;;;;;;;;;;5.20;99.90;;;;;;5051403;28;19929;-86
2021/12/17 03:01:31;;;;;;;;;;;5.90;99.90;;;;;;5048750;28;19990;-87
2021/12/17 03:03:58;;;;;;;;;;;5.30;99.90;;;;;;5047065;28;19925;-86
2021/12/17 03:06:25;;;;;;;;;;;6.10;99.90;;;;;;5064983;22;19925;-80
2021/12/17 03:08:51;;;;;;;;;;;5.90;99.90;;;;;;5041951;28;20380;-80
2021/12/17 03:11:19;;;;;;;;;;;5.90;99.90;;;;;;5042939;28;19956;-80
2021/12/17 03:13:47;;;;;;;;;;;5.90;99.90;;;;;;5043733;28;20013;-80
2021/12/17 03:16:29;;;;;;;;;;;5.90;99.90;;;;;;5042616;28;19987;-80
2021/12/17 03:19:08;;;;;;;;;;;5.90;99.90;;;;;;5046214;28;19929;-79
2021/12/17 03:24:20;;;;;;;;;;;5.90;99.90;;;;;;5055235;28;19955;-78
2021/12/17 03:26:48;;;;;;;;;;;5.90;99.90;;;;;;5055657;28;19929;-79
2021/12/17 03:29:15;;;;;;;;;;;5.80;99.90;;;;;;5054267;28;20261;-79
2021/12/17 03:31:42;;;;;;;;;;;5.80;99.90;;;;;;5055945;28;20016;-82
2021/12/17 03:34:17;;;;;;;;;;;5.90;99.90;;;;;;5043858;28;20291;-81
2021/12/17 03:36:44;;;;;;;;;;;5.80;99.90;;;;;;5042943;28;19936;-81
2021/12/17 03:39:11;;;;;;;;;;;5.90;99.90;;;;;;5040663;28;20284;-81
2021/12/17 03:41:39;;;;;;;;;;;5.90;99.90;;;;;;5040112;28;19929;-82
2021/12/17 03:44:08;;;;;;;;;;;5.80;99.90;;;;;;5042035;28;19929;-82
2021/12/17 03:46:35;;;;;;;;;;;5.80;99.90;;;;;;5041787;28;19932;-81
2021/12/17 03:49:02;;;;;;;;;;;5.90;99.90;;;;;;5042326;28;19991;-81
2021/12/17 03:51:29;;;;;;;;;;;5.80;99.90;;;;;;5042011;28;19925;-81
2021/12/17 03:53:57;;;;;;;;;;;5.80;99.90;;;;;;5041283;28;19956;-81
2021/12/17 03:56:24;;;;;;;;;;;5.80;99.90;;;;;;5043299;28;19975;-82
2021/12/17 03:58:53;;;;;;;;;;;5.80;99.90;;;;;;5048102;28;19936;-82
2021/12/17 04:01:21;;;;;;;;;;;5.80;99.90;;;;;;5043454;28;19964;-81
2021/12/17 04:03:48;;;;;;;;;;;5.80;99.90;;;;;;5041985;28;19948;-82
2021/12/17 04:06:14;;;;;;;;;;;5.80;99.90;;;;;;5040848;28;19925;-81
2021/12/17 04:08:41;;;;;;;;;;;5.80;99.90;;;;;;5044494;28;19925;-81
2021/12/17 04:11:09;;;;;;;;;;;5.90;99.90;;;;;;5045559;28;19932;-81
2021/12/17 04:13:37;;;;;;;;;;;5.80;99.90;;;;;;5045329;28;19925;-81
2021/12/17 04:16:07;;;;;;;;;;;5.80;99.90;;;;;;5042848;28;19929;-81
2021/12/17 04:18:35;;;;;;;;;;;5.80;99.90;;;;;;5044307;28;20340;-81
2021/12/17 04:21:03;;;;;;;;;;;5.90;99.90;;;;;;5046896;28;19925;-81
2021/12/17 04:23:31;;;;;;;;;;;5.70;99.90;;;;;;5046321;28;19929;-81
2021/12/17 04:25:58;;;;;;;;;;;5.90;99.90;;;;;;5045531;28;20012;-81
2021/12/17 04:28:24;;;;;;;;;;;5.80;99.90;;;;;;5046674;28;19929;-81
2021/12/17 04:30:51;;;;;;;;;;;5.80;99.90;;;;;;5045734;28;19926;-82
2021/12/17 04:33:17;;;;;;;;;;;5.90;99.90;;;;;;5046080;28;19925;-82
2021/12/17 04:35:45;;;;;;;;;;;5.90;99.90;;;;;;5045075;28;19933;-82
2021/12/17 04:38:14;;;;;;;;;;;6.00;99.90;;;;;;5045309;28;19924;-82
2021/12/17 04:40:43;;;;;;;;;;;5.90;99.90;;;;;;5055323;28;19964;-82
2021/12/17 04:43:21;;;;;;;;;;;6.00;99.90;;;;;;5046423;28;20016;-81
2021/12/17 04:45:57;;;;;;;;;;;5.80;99.90;;;;;;5045791;28;19926;-80
2021/12/17 04:59:22;;;;;;;;;;;5.80;99.90;;;;;;5045839;28;19932;-79
2021/12/17 05:01:49;;;;;;;;;;;5.80;99.90;;;;;;5042399;28;19963;-79
2021/12/17 05:04:15;;;;;;;;;;;5.80;99.90;;;;;;5042224;28;19928;-79
2021/12/17 05:06:43;;;;;;;;;;;5.70;99.90;;;;;;5042362;28;20319;-80
2021/12/17 05:09:20;;;;;;;;;;;5.80;99.90;;;;;;5041980;28;19926;-80
2021/12/17 05:19:59;;;;;;;;;;;5.80;99.90;;;;;;5041157;28;19928;-79
2021/12/17 05:22:28;;;;;;;;;;;5.80;99.90;;;;;;5047395;28;19988;-79
2021/12/17 05:24:55;;;;;;;;;;;5.80;99.90;;;;;;5050613;28;19936;-80
2021/12/17 05:27:22;;;;;;;;;;;5.70;99.90;;;;;;5048095;28;19968;-79
2021/12/17 05:29:49;;;;;;;;;;;6.00;99.90;;;;;;5043906;28;19925;-80
2021/12/17 05:32:16;;;;;;;;;;;5.80;99.90;;;;;;5040195;28;19925;-80
2021/12/17 05:34:42;;;;;;;;;;;5.80;99.90;;;;;;5040647;28;19975;-81
2021/12/17 05:37:09;;;;;;;;;;;5.80;99.90;;;;;;5038576;28;19926;-80
2021/12/17 05:39:37;;;;;;;;;;;5.80;99.90;;;;;;5040777;28;19932;-81
2021/12/17 05:42:04;;;;;;;;;;;5.60;99.90;;;;;;5040084;28;19963;-81
2021/12/17 05:44:30;;;;;;;;;;;5.60;99.90;;;;;;5039231;28;19929;-80
2021/12/17 05:46:57;;;;;;;;;;;5.50;99.90;;;;;;5039257;28;19925;-80
2021/12/17 05:49:24;;;;;;;;;;;5.60;99.90;;;;;;5039560;28;19929;-79
2021/12/17 05:51:52;;;;;;;;;;;5.60;99.90;;;;;;5038828;28;20442;-80
2021/12/17 05:54:18;;;;;;;;;;;5.60;99.90;;;;;;5039259;28;19925;-81
2021/12/17 05:56:46;;;;;;;;;;;5.60;99.90;;;;;;5039618;28;19956;-81
2021/12/17 05:59:13;;;;;;;;;;;5.70;99.90;;;;;;5042052;28;19965;-81
2021/12/17 06:01:40;;;;;;;;;;;5.60;99.90;;;;;;5038554;28;19975;-81
2021/12/17 06:04:06;;;;;;;;;;;5.70;99.90;;;;;;5038840;28;20380;-80
2021/12/17 06:06:34;;;;;;;;;;;5.60;99.90;;;;;;5039079;28;19925;-81
2021/12/17 06:09:04;;;;;;;;;;;5.60;99.90;;;;;;5040228;28;19932;-80
2021/12/17 06:11:30;;;;;;;;;;;5.60;99.90;;;;;;5039175;28;19979;-80
2021/12/17 06:13:58;;;;;;;;;;;5.50;99.90;;;;;;5041366;28;19926;-78
2021/12/17 06:16:28;;;;;;;;;;;5.50;99.90;;;;;;5040677;28;20366;-81
2021/12/17 06:18:54;;;;;;;;;;;5.50;99.90;;;;;;5039657;28;20355;-82
2021/12/17 06:21:21;;;;;;;;;;;5.40;99.90;;;;;;5038580;28;19964;-80
2021/12/17 06:23:49;;;;;;;;;;;5.30;99.90;;;;;;5038007;28;20370;-80
2021/12/17 06:26:16;;;;;;;;;;;5.50;99.90;;;;;;5041141;28;19933;-81
2021/12/17 06:28:42;;;;;;;;;;;5.40;99.90;;;;;;5042287;28;19925;-81
2021/12/17 06:31:10;;;;;;;;;;;5.30;99.90;;;;;;5042075;28;19971;-82
2021/12/17 06:33:37;;;;;;;;;;;5.30;99.90;;;;;;5042066;28;19929;-82
2021/12/17 06:36:03;;;;;;;;;;;5.30;99.90;;;;;;5041876;28;19932;-81
2021/12/17 06:38:30;;;;;;;;;;;5.40;99.90;;;;;;5042094;28;19975;-81
2021/12/17 06:40:58;;;;;;;;;;;5.40;99.90;;;;;;5044370;28;19940;-79
2021/12/17 06:43:32;;;;;;;;;;;5.40;99.90;;;;;;5055415;28;19929;-80
2021/12/17 06:46:12;;;;;;;;;;;5.40;99.90;;;;;;5055641;28;19980;-80
2021/12/17 06:48:40;;;;;;;;;;;5.30;99.90;;;;;;5056244;28;19925;-79
2021/12/17 06:57:39;;;;;;;;;;;5.20;99.90;;;;;;5050524;28;20367;-80
2021/12/17 06:59:55;;;;;;;;;;;5.30;99.90;;;;;;5053748;28;19932;-80
2021/12/17 07:11:13;;;;;;;;;;;5.30;99.90;;;;;;5041834;28;19925;-80
2021/12/17 07:22:02;;;;;;;;;;;5.40;99.90;;;;;;5041646;28;20425;-80
2021/12/17 07:32:47;;;;;;;;;;;5.50;99.90;;;;;;5041427;28;19921;-81
2021/12/17 07:35:40;;;;;;;;;;;5.50;99.90;;;;;;5043265;28;19925;-81
2021/12/17 07:40:52;;;;;;;;;;;5.50;99.90;;;;;;5043606;28;20398;-81
2021/12/17 07:43:29;;;;;;;;;;;5.50;99.90;;;;;;5042071;28;19925;-81
2021/12/17 07:45:56;;;;;;;;;;;5.50;99.90;;;;;;5042109;28;19925;-80
2021/12/17 07:48:23;;;;;;;;;;;5.50;99.90;;;;;;5050363;28;19953;-79
2021/12/17 07:50:49;;;;;;;;;;;5.60;99.90;;;;;;5053403;28;19920;-79
2021/12/17 07:53:17;;;;;;;;;;;5.50;99.90;;;;;;5050433;28;19913;-80
2021/12/17 07:55:44;;;;;;;;;;;5.50;99.90;;;;;;5050961;28;19955;-80
2021/12/17 07:58:11;;;;;;;;;;;5.50;99.90;;;;;;5051812;28;19925;-82
2021/12/17 08:00:37;;;;;;;;;;;5.50;99.90;;;;;;5047056;28;19925;-81
2021/12/17 08:03:04;;;;;;;;;;;5.60;99.90;;;;;;5051551;28;19986;-80
2021/12/17 08:05:30;;;;;;;;;;;5.60;99.90;;;;;;5051185;28;19948;-82
2021/12/17 08:07:59;;;;;;;;;;;5.60;99.90;;;;;;5047757;28;19960;-82
2021/12/17 08:10:26;;;;;;;;;;;5.60;99.90;;;;;;5044348;28;19948;-81
2021/12/17 08:12:55;;;;;;;;;;;5.50;99.90;;;;;;5042228;28;20345;-80
2021/12/17 08:15:29;;;;;;;;;;;5.60;99.90;;;;;;5041189;28;19925;-78
2021/12/17 08:18:18;;;;;;;;;;;5.50;99.90;;;;;;5053156;28;19935;-80
2021/12/17 08:24:05;;;;;;;;;;;5.60;99.90;;;;;;5053134;28;19928;-80
2021/12/17 08:26:40;;;;;;;;;;;5.60;99.90;;;;;;5051250;28;19976;-78
2021/12/17 08:29:25;;;;;;;;;;;5.60;99.90;;;;;;5052731;28;19925;-80
2021/12/17 08:31:51;;;;;;;;;;;5.70;99.90;;;;;;5058578;28;19963;-78
2021/12/17 08:34:18;;;;;;;;;;;5.70;99.90;;;;;;5057847;28;19932;-79
2021/12/17 08:36:44;;;;;;;;;;;5.70;99.90;;;;;;5056499;28;19936;-79
2021/12/17 08:39:11;;;;;;;;;;;5.70;99.90;;;;;;5053162;28;20418;-79
2021/12/17 08:41:40;;;;;;;;;;;5.70;99.90;;;;;;5052166;28;19925;-79
2021/12/17 08:44:06;;;;;;;;;;;5.60;99.90;;;;;;5044081;28;19932;-79
2021/12/17 08:46:33;;;;;;;;;;;5.80;99.90;;;;;;5043852;28;19933;-79
2021/12/17 08:48:59;;;;;;;;;;;5.80;99.90;;;;;;5043325;28;19952;-79
2021/12/17 08:51:26;;;;;;;;;;;5.80;99.90;;;;;;5042729;28;19929;-79
2021/12/17 08:53:52;;;;;;;;;;;5.70;99.90;;;;;;5041239;28;19925;-79
2021/12/17 08:56:22;;;;;;;;;;;5.80;99.90;;;;;;5048613;28;19925;-80
2021/12/17 08:58:54;;;;;;;;;;;5.70;99.90;;;;;;5053145;28;19984;-80
2021/12/17 09:01:21;;;;;;;;;;;5.80;99.90;;;;;;5052086;28;19925;-80
2021/12/17 09:03:48;;;;;;;;;;;5.80;99.90;;;;;;5053144;28;20296;-80
2021/12/17 09:06:14;;;;;;;;;;;5.80;99.90;;;;;;5085268;22;19931;-88
2021/12/17 09:08:43;;;;;;;;;;;4.80;99.90;;;;;;5044955;28;20316;-87
2021/12/17 09:11:10;;;;;;;;;;;5.70;99.90;;;;;;5044771;28;20262;-87
2021/12/17 09:13:37;;;;;;;;;;;5.80;99.90;;;;;;5043815;28;20398;-88
2021/12/17 09:16:10;;;;;;;;;;;5.80;99.90;;;;;;5043744;28;19925;-88
2021/12/17 09:18:37;;;;;;;;;;;5.70;99.90;;;;;;5044235;28;20280;-88
2021/12/17 09:21:04;;;;;;;;;;;5.90;99.90;;;;;;5048025;28;19925;-85
2021/12/17 09:23:37;;;;;;;;;;;5.80;99.90;;;;;;5048610;28;19929;-88
2021/12/17 09:26:04;;;;;;;;;;;5.80;99.90;;;;;;5049241;28;19925;-87
2021/12/17 09:28:31;;;;;;;;;;;5.80;99.90;;;;;;5051168;28;19931;-87
2021/12/17 09:30:58;;;;;;;;;;;5.90;99.90;;;;;;5048640;28;19925;-86
2021/12/17 09:33:26;;;;;;;;;;;5.90;99.90;;;;;;5041585;28;19948;-86
2021/12/17 09:35:53;;;;;;;;;;;5.90;99.90;;;;;;5041596;28;20408;-86
2021/12/17 09:38:20;;;;;;;;;;;6.00;99.90;;;;;;5041283;28;19971;-87
2021/12/17 09:40:47;;;;;;;;;;;6.00;99.90;;;;;;5042153;28;19929;-88
2021/12/17 09:43:16;;;;;;;;;;;5.70;99.90;;;;;;5048962;28;19936;-86
2021/12/17 09:45:43;;;;;;;;;;;6.90;99.90;;;;;;5058322;28;19925;-88
2021/12/17 09:48:10;;;;;;;;;;;5.90;99.90;;;;;;5052152;28;20355;-88
2021/12/17 09:50:38;;;;;;;;;;;6.90;99.90;;;;;;5041864;28;19932;-88
2021/12/17 09:53:05;;;;;;;;;;;5.50;99.90;;;;;;5041186;28;19964;-88
2021/12/17 09:55:32;;;;;;;;;;;5.90;99.90;;;;;;5041716;28;20008;-88
2021/12/17 09:57:58;;;;;;;;;;;6.00;99.90;;;;;;5041736;28;20000;-88
2021/12/17 10:00:27;;;;;;;;;;;6.00;99.90;;;;;;5041696;28;19925;-87
2021/12/17 10:02:54;;;;;;;;;;;6.10;99.90;;;;;;5041427;28;19959;-88
2021/12/17 10:05:23;;;;;;;;;;;6.20;99.90;;;;;;5042520;28;19932;-88
2021/12/17 10:07:54;;;;;;;;;;;6.00;99.90;;;;;;5040834;28;19925;-88
2021/12/17 10:10:21;;;;;;;;;;;5.90;99.90;;;;;;5042409;28;19926;-88
2021/12/17 10:12:48;;;;;;;;;;;5.80;99.90;;;;;;5042083;28;20392;-87
2021/12/17 10:15:18;;;;;;;;;;;6.00;99.90;;;;;;5041931;28;19926;-86
2021/12/17 10:17:52;;;;;;;;;;;6.00;99.90;;;;;;5042149;28;19925;-87
2021/12/17 10:20:19;;;;;;;;;;;6.10;99.90;;;;;;5045070;28;19952;-88
2021/12/17 10:22:46;;;;;;;;;;;6.20;99.90;;;;;;5047945;28;19929;-88
2021/12/17 10:25:14;;;;;;;;;;;5.90;99.90;;;;;;5048691;28;19947;-86
2021/12/17 10:27:41;;;;;;;;;;;5.80;99.90;;;;;;5045909;28;19925;-88
2021/12/17 10:30:09;;;;;;;;;;;6.20;99.90;;;;;;5040345;28;20336;-87
2021/12/17 10:32:36;;;;;;;;;;;6.20;99.90;;;;;;5044730;28;19934;-88
2021/12/17 10:35:05;;;;;;;;;;;6.10;99.90;;;;;;5044008;28;20335;-87
2021/12/17 10:37:33;;;;;;;;;;;6.10;99.90;;;;;;5052444;28;19913;-86
2021/12/17 10:39:59;;;;;;;;;;;6.20;99.90;;;;;;5055258;28;19925;-86
2021/12/17 10:42:33;;;;;;;;;;;5.90;99.90;;;;;;5049562;28;20368;-87
2021/12/17 10:45:03;;;;;;;;;;;6.70;99.90;;;;;;5044279;28;19931;-88
2021/12/17 10:47:33;;;;;;;;;;;6.20;99.90;;;;;;5055706;28;19913;-86
2021/12/17 10:50:02;;;;;;;;;;;6.30;99.90;;;;;;5053082;28;19936;-88
2021/12/17 10:52:31;;;;;;;;;;;5.30;99.90;;;;;;5048265;28;19940;-88
2021/12/17 10:55:07;;;;;;;;;;;6.10;99.90;;;;;;5043513;28;19925;-88
2021/12/17 10:57:35;;;;;;;;;;;6.40;99.90;;;;;;5043607;28;19975;-87
2021/12/17 11:00:03;;;;;;;;;;;6.30;99.90;;;;;;5044569;28;20296;-88
2021/12/17 11:02:33;;;;;;;;;;;5.90;99.90;;;;;;5043042;28;19925;-87
2021/12/17 11:05:10;;;;;;;;;;;6.40;99.90;;;;;;5042257;28;20300;-87
2021/12/17 11:07:39;;;;;;;;;;;6.30;99.90;;;;;;5041531;28;19932;-87
2021/12/17 11:10:06;;;;;;;;;;;6.30;99.90;;;;;;5052675;28;19916;-86
2021/12/17 11:12:35;;;;;;;;;;;6.30;99.90;;;;;;5059809;28;19940;-87
2021/12/17 11:15:12;;;;;;;;;;;6.40;99.90;;;;;;5060582;28;19955;-88
2021/12/17 11:17:39;;;;;;;;;;;6.50;99.90;;;;;;5047759;28;19929;-85
2021/12/17 11:20:07;;;;;;;;;;;6.40;99.90;;;;;;5045941;28;19925;-88
2021/12/17 11:22:34;;;;;;;;;;;6.40;99.90;;;;;;5047373;28;19976;-82
2021/12/17 11:25:01;;;;;;;;;;;6.40;99.90;;;;;;5055086;28;19925;-88
2021/12/17 11:27:28;;;;;;;;;;;6.50;99.90;;;;;;5060145;28;19931;-89
2021/12/17 11:29:55;;;;;;;;;;;6.50;99.90;;;;;;5059755;28;19931;-87
2021/12/17 11:32:23;;;;;;;;;;;6.50;99.90;;;;;;5060523;28;19932;-86
2021/12/17 11:34:49;;;;;;;;;;;6.60;99.90;;;;;;5060298;28;20024;-86
2021/12/17 11:37:16;;;;;;;;;;;6.50;99.90;;;;;;5056334;28;19925;-89
2021/12/17 11:39:47;;;;;;;;;;;6.30;99.90;;;;;;5057469;28;19913;-85
2021/12/17 11:42:24;;;;;;;;;;;6.50;99.90;;;;;;5060725;28;19913;-84
2021/12/17 11:45:23;;;;;;;;;;;6.40;99.90;;;;;;5054782;28;19925;-86
2021/12/17 11:47:42;;;;;;;;;;;6.50;99.90;;;;;;5049200;28;19948;-84
2021/12/17 11:50:10;;;;;;;;;;;6.00;99.90;;;;;;5060140;28;19944;-83
2021/12/17 11:52:41;;;;;;;;;;;6.60;99.90;;;;;;5060295;28;19925;-82
2021/12/17 11:55:26;;;;;;;;;;;6.60;99.90;;;;;;5060786;28;19917;-85
2021/12/17 11:57:53;;;;;;;;;;;6.60;99.90;;;;;;5060388;28;19969;-83
2021/12/17 12:00:23;;;;;;;;;;;6.50;99.90;;;;;;5060931;28;19909;-82
2021/12/17 12:02:53;;;;;;;;;;;6.50;99.90;;;;;;5060836;28;19921;-81
2021/12/17 12:05:33;;;;;;;;;;;6.50;99.90;;;;;;5060142;28;19956;-83
2021/12/17 12:08:15;;;;;;;;;;;6.50;99.90;;;;;;5059904;28;19976;-82
2021/12/17 12:10:41;;;;;;;;;;;6.50;99.90;;;;;;5057915;28;19925;-84
2021/12/17 12:13:08;;;;;;;;;;;6.50;99.90;;;;;;5057701;28;19913;-79
2021/12/17 12:15:40;;;;;;;;;;;6.60;99.90;;;;;;5056831;28;19947;-83
2021/12/17 12:18:17;;;;;;;;;;;6.50;99.90;;;;;;5051098;28;19925;-82
2021/12/17 12:20:51;;;;;;;;;;;6.60;99.90;;;;;;5045150;28;20303;-86
2021/12/17 12:23:19;;;;;;;;;;;6.50;99.90;;;;;;5044101;28;20334;-87
2021/12/17 12:25:46;;;;;;;;;;;6.50;99.90;;;;;;5045133;28;19932;-87
2021/12/17 12:28:14;;;;;;;;;;;6.20;99.90;;;;;;5044272;28;19929;-87
2021/12/17 12:30:43;;;;;;;;;;;6.50;99.90;;;;;;5046091;28;19925;-87
2021/12/17 12:33:10;;;;;;;;;;;6.70;99.90;;;;;;5045719;28;19936;-87
2021/12/17 12:35:41;;;;;;;;;;;6.60;99.90;;;;;;5047747;28;19932;-88
2021/12/17 12:38:16;;;;;;;;;;;6.60;99.90;;;;;;5054270;28;19925;-86
2021/12/17 12:40:46;;;;;;;;;;;6.60;99.90;;;;;;5057331;28;19932;-86
2021/12/17 12:43:26;;;;;;;;;;;6.50;99.90;;;;;;5051186;28;19989;-86
2021/12/17 12:45:54;;;;;;;;;;;6.50;99.90;;;;;;5054193;28;19925;-85
2021/12/17 12:48:28;;;;;;;;;;;6.50;99.90;;;;;;5053631;28;19909;-87
2021/12/17 12:51:10;;;;;;;;;;;6.50;99.90;;;;;;5052249;28;19945;-89
2021/12/17 12:53:45;;;;;;;;;;;6.50;99.90;;;;;;5053525;28;19925;-87
2021/12/17 12:56:48;;;;;;;;;;;6.60;99.90;;;;;;5051638;28;19948;-87
2021/12/17 12:59:20;;;;;;;;;;;6.60;99.90;;;;;;5052111;28;20008;-87
2021/12/17 13:02:10;;;;;;;;;;;6.60;99.90;;;;;;5051321;28;19926;-88
2021/12/17 13:07:49;;;;;;;;;;;6.50;99.90;;;;;;5045543;28;19925;-88
2021/12/17 13:10:29;;;;;;;;;;;6.50;99.90;;;;;;5048367;28;19999;-86
2021/12/17 13:13:03;;;;;;;;;;;6.60;99.90;;;;;;5047487;28;19960;-88
2021/12/17 13:15:50;;;;;;;;;;;6.60;99.90;;;;;;5047761;28;20342;-88
2021/12/17 13:25:02;;;;;;;;;;;6.60;99.90;;;;;;5021942;28;19921;-87
2021/12/17 13:27:55;;;;;;;;;;;7.90;99.90;;;;;;5046968;28;19983;-87
2021/12/17 13:34:14;;;;;;;;;;;7.50;99.90;;;;;;5044877;28;19975;-88
2021/12/17 13:40:10;;;;;;;;;;;7.80;99.90;;;;;;5013018;28;19964;-87
2021/12/17 13:43:00;;;;;;;;;;;6.80;99.90;;;;;;5016257;28;19926;-88
2021/12/17 13:57:28;;;;;;;;;;;6.90;99.90;;;;;;5017425;28;19948;-88
2021/12/17 14:06:51;;;;;;;;;;;6.60;99.90;;;;;;4980856;28;19926;-87
2021/12/17 14:12:46;;;;;;;;;;;6.20;99.90;;;;;;4913411;29;19934;-87
2021/12/17 14:15:32;;;;;;;;;;;6.60;99.90;;;;;;4906115;29;19953;-86
2021/12/17 14:18:12;;;;;;;;;;;6.60;99.90;;;;;;5032525;28;19925;-86
2021/12/17 14:21:06;;;;;;;;;;;6.60;99.90;;;;;;5055467;28;19932;-86
2021/12/17 14:23:39;;;;;;;;;;;7.30;99.90;;;;;;5056196;28;19925;-85
2021/12/17 14:26:28;;;;;;;;;;;6.60;99.90;;;;;;5055442;28;19932;-85
2021/12/17 14:32:32;;;;;;;;;;;7.50;99.90;;;;;;5045689;28;19928;-86
2021/12/17 14:42:16;;;;;;;;;;;6.70;99.90;;;;;;5012382;28;19928;-85
2021/12/17 14:45:20;;;;;;;;;;;6.60;99.90;;;;;;5048886;28;19925;-85
2021/12/17 14:47:59;;;;;;;;;;;6.90;99.90;;;;;;5050468;28;19929;-84
2021/12/17 15:08:09;;;;;;;;;;;5.70;99.90;;;;;;5045041;28;19932;-82
2021/12/17 15:10:35;;;;;;;;;;;6.00;99.90;;;;;;5049702;28;19932;-80
2021/12/17 15:13:02;;;;;;;;;;;6.40;99.90;;;;;;5052564;28;19925;-81
2021/12/17 15:15:30;;;;;;;;;;;6.50;99.90;;;;;;5050533;28;19925;-81
2021/12/17 15:17:57;;;;;;;;;;;6.40;99.90;;;;;;5051441;28;19952;-80
2021/12/17 15:20:25;;;;;;;;;;;6.50;99.90;;;;;;5054461;28;19931;-81
2021/12/17 15:22:52;;;;;;;;;;;6.50;99.90;;;;;;5053575;28;19925;-81
2021/12/17 15:25:20;;;;;;;;;;;6.50;99.90;;;;;;5054823;28;19925;-80
2021/12/17 15:27:47;;;;;;;;;;;6.50;99.90;;;;;;5058632;28;19925;-80
2021/12/17 15:30:14;;;;;;;;;;;6.60;99.90;;;;;;5058719;28;19925;-80
2021/12/17 15:32:41;;;;;;;;;;;6.60;99.90;;;;;;5058443;28;19926;-80
2021/12/17 15:35:08;;;;;;;;;;;6.50;99.90;;;;;;5057941;28;19925;-81
2021/12/17 15:37:36;;;;;;;;;;;6.50;99.90;;;;;;5057842;28;19925;-80
2021/12/17 15:40:03;;;;;;;;;;;6.40;99.90;;;;;;5058906;28;19936;-81
2021/12/17 15:42:31;;;;;;;;;;;6.50;99.90;;;;;;5057794;28;19925;-81
2021/12/17 15:44:57;;;;;;;;;;;6.20;99.90;;;;;;5054643;28;19925;-80
2021/12/17 15:47:24;;;;;;;;;;;6.50;99.90;;;;;;5051108;28;19955;-81
2021/12/17 15:49:50;;;;;;;;;;;6.50;99.90;;;;;;5049769;28;19932;-81
2021/12/17 15:52:17;;;;;;;;;;;6.50;99.90;;;;;;5051884;28;19925;-81
2021/12/17 15:54:44;;;;;;;;;;;6.50;99.90;;;;;;5051911;28;19925;-81
2021/12/17 15:57:11;;;;;;;;;;;6.50;99.90;;;;;;5051602;28;19909;-80
2021/12/17 15:59:39;;;;;;;;;;;6.40;99.90;;;;;;5050250;28;19925;-82
2021/12/17 16:02:05;;;;;;;;;;;6.40;99.90;;;;;;5048253;28;19994;-81
2021/12/17 16:04:36;;;;;;;;;;;6.50;99.90;;;;;;5054916;28;19925;-80
2021/12/17 16:07:03;;;;;;;;;;;6.50;99.90;;;;;;5048691;28;19936;-81
2021/12/17 16:16:50;;;;;;;;;;;6.40;99.90;;;;;;5044054;28;20293;-82
2021/12/17 16:23:21;;;;;;;;;;;6.40;99.90;;;;;;5045898;28;19932;-82
2021/12/17 16:25:47;;;;;;;;;;;6.40;99.90;;;;;;5045749;28;19953;-83
2021/12/17 16:28:14;;;;;;;;;;;6.50;99.90;;;;;;5045787;28;19948;-82
2021/12/17 16:30:42;;;;;;;;;;;6.40;99.90;;;;;;5047948;28;19971;-81
2021/12/17 16:33:08;;;;;;;;;;;6.40;99.90;;;;;;5052184;28;20020;-81
2021/12/17 16:35:35;;;;;;;;;;;6.40;99.90;;;;;;5047007;28;19956;-81
2021/12/17 16:38:01;;;;;;;;;;;6.40;99.90;;;;;;5043917;28;19925;-82
2021/12/17 16:40:28;;;;;;;;;;;6.50;99.90;;;;;;5043495;28;19925;-82
2021/12/17 16:42:56;;;;;;;;;;;6.40;99.90;;;;;;5043730;28;19948;-82
2021/12/17 16:45:30;;;;;;;;;;;6.40;99.90;;;;;;5044378;28;20024;-82
2021/12/17 16:48:02;;;;;;;;;;;6.40;99.90;;;;;;5043656;28;19932;-80
2021/12/17 16:50:31;;;;;;;;;;;6.40;99.90;;;;;;5044809;28;19948;-82
2021/12/17 16:52:58;;;;;;;;;;;6.40;99.90;;;;;;5047465;28;19925;-82
2021/12/17 16:55:24;;;;;;;;;;;6.30;99.90;;;;;;5047588;28;20407;-84
2021/12/17 16:57:50;;;;;;;;;;;6.50;99.90;;;;;;5045340;28;19925;-83
2021/12/17 17:00:17;;;;;;;;;;;6.40;99.90;;;;;;5045430;28;20396;-82
2021/12/17 17:02:44;;;;;;;;;;;6.30;99.90;;;;;;5049343;28;19925;-82
2021/12/17 17:05:11;;;;;;;;;;;6.30;99.90;;;;;;5050523;28;20343;-82
2021/12/17 17:07:38;;;;;;;;;;;6.30;99.90;;;;;;5052292;28;19926;-82
2021/12/17 17:10:05;;;;;;;;;;;6.30;99.90;;;;;;5052605;28;19924;-81
2021/12/17 17:12:33;;;;;;;;;;;6.40;99.90;;;;;;5052821;28;19925;-82
2021/12/17 17:15:09;;;;;;;;;;;6.30;99.90;;;;;;5050356;28;19932;-83
2021/12/17 17:17:36;;;;;;;;;;;6.30;99.90;;;;;;5046748;28;19956;-82
2021/12/17 17:20:03;;;;;;;;;;;6.40;99.90;;;;;;5046723;28;19932;-84
2021/12/17 17:22:31;;;;;;;;;;;6.40;99.90;;;;;;5046002;28;19932;-83
2021/12/17 17:24:57;;;;;;;;;;;6.40;99.90;;;;;;5047546;28;19935;-82
2021/12/17 17:27:24;;;;;;;;;;;6.40;99.90;;;;;;5047208;28;19933;-82
2021/12/17 17:29:50;;;;;;;;;;;6.20;99.90;;;;;;5047887;28;19983;-82
2021/12/17 17:32:17;;;;;;;;;;;6.30;99.90;;;;;;5047078;28;19957;-82
2021/12/17 17:34:45;;;;;;;;;;;6.30;99.90;;;;;;5044982;28;19928;-82
2021/12/17 17:37:11;;;;;;;;;;;6.20;99.90;;;;;;5045364;28;19932;-82
2021/12/17 17:39:39;;;;;;;;;;;6.10;99.90;;;;;;5043784;28;19947;-81
2021/12/17 17:42:06;;;;;;;;;;;6.20;99.90;;;;;;5044805;28;19948;-83
2021/12/17 17:44:33;;;;;;;;;;;6.20;99.90;;;;;;5042372;28;19929;-81
2021/12/17 17:46:59;;;;;;;;;;;6.10;99.90;;;;;;5042669;28;19925;-82
2021/12/17 17:49:30;;;;;;;;;;;6.20;99.90;;;;;;5045659;28;20388;-81
2021/12/17 17:51:56;;;;;;;;;;;6.20;99.90;;;;;;5047989;28;19932;-82
2021/12/17 17:54:23;;;;;;;;;;;5.90;99.90;;;;;;5045116;28;19952;-82
2021/12/17 17:56:51;;;;;;;;;;;6.20;99.90;;;;;;5046216;28;19932;-81
2021/12/17 17:59:17;;;;;;;;;;;6.20;99.90;;;;;;5043702;28;19925;-81
2021/12/17 18:01:47;;;;;;;;;;;6.20;99.90;;;;;;5042707;28;19929;-80
2021/12/17 18:04:14;;;;;;;;;;;6.20;99.90;;;;;;5042818;28;19925;-82
2021/12/17 18:06:40;;;;;;;;;;;6.20;99.90;;;;;;5042998;28;19952;-82
2021/12/17 18:09:07;;;;;;;;;;;6.40;99.90;;;;;;5044040;28;19932;-82
2021/12/17 18:11:33;;;;;;;;;;;6.30;99.90;;;;;;5043017;28;19992;-81
2021/12/17 18:14:01;;;;;;;;;;;6.30;99.90;;;;;;5042932;28;19950;-81